Sedalia, Ohio
Current Conditions -  °F | °C
As of 1:15 PM on Tuesday 21 Oct 2014 (Local Time) from KUYF Reporting Station
Overcast Overcast  
Wind Chill: 50°   Ceiling: 4300
Heat Index: 50°   Visibility: 10mi
Dew Point: 43°   Wind: 12mph
Humidity: 76%   Direction: 330°NNW
Pressure: 30.01"   Gusts: 17mph
Location:  39.73°N, 83.47°W
Report Text: KUYF 211715Z AUTO 33010G15KT 10SM SCT022 SCT027 OVC043 10/06 A3001 RMK AO2
Loading
Personal Weather Stations






























Interactive Weather Map
Tropical Storm Tracking
New forecast layout! Learn more

10-Day Weather Forecast

Advertisements
Track Severe Weather on mobile